createdAt,value
2018-02-05T00:01:13.271Z,38.83
2018-02-05T00:03:41.636Z,38.70
2018-02-05T00:06:10.001Z,41.97
2018-02-05T00:08:38.376Z,40.33
2018-02-05T00:11:06.724Z,39.90
2018-02-05T00:13:35.572Z,37.73
2018-02-05T00:16:04.014Z,38.60
2018-02-05T00:18:32.392Z,36.70
2018-02-05T00:21:00.735Z,38.30
2018-02-05T00:23:29.584Z,37.67
2018-02-05T00:25:57.976Z,38.13
2018-02-05T00:28:26.344Z,38.20
2018-02-05T00:30:54.727Z,37.07
2018-02-05T00:33:23.079Z,36.27
2018-02-05T00:35:51.562Z,40.43
2018-02-05T00:38:19.908Z,38.47
2018-02-05T00:40:48.835Z,39.57
2018-02-05T00:43:17.186Z,35.13
2018-02-05T00:45:45.938Z,36.23
2018-02-05T00:48:14.397Z,36.13
2018-02-05T00:50:42.782Z,38.93
2018-02-05T00:53:11.259Z,37.63
2018-02-05T00:55:39.618Z,37.10
2018-02-05T00:58:08.030Z,37.50
2018-02-05T01:00:36.374Z,35.17
2018-02-05T01:03:04.771Z,37.67
2018-02-05T01:05:33.154Z,35.63
2018-02-05T01:08:01.508Z,37.40
2018-02-05T01:10:29.863Z,36.47
2018-02-05T01:12:58.596Z,34.23
2018-02-05T01:15:26.976Z,36.00
2018-02-05T01:17:55.326Z,38.93
2018-02-05T01:20:23.707Z,36.27
2018-02-05T01:22:52.113Z,36.00
2018-02-05T01:25:20.467Z,34.87
2018-02-05T01:27:48.833Z,36.07
2018-02-05T01:30:17.259Z,35.67
2018-02-05T01:32:45.726Z,35.23
2018-02-05T01:35:14.108Z,34.90
2018-02-05T01:37:42.490Z,35.67
2018-02-05T01:40:10.871Z,34.70
2018-02-05T01:42:39.216Z,33.70
2018-02-05T01:45:07.603Z,33.80
2018-02-05T01:47:35.964Z,35.37
2018-02-05T01:50:04.307Z,34.03
2018-02-05T01:52:32.680Z,32.47
2018-02-05T01:55:01.027Z,34.00
2018-02-05T01:57:29.396Z,34.53
2018-02-05T01:59:57.794Z,34.10
2018-02-05T02:02:26.175Z,32.77
2018-02-05T02:04:54.545Z,31.70
2018-02-05T02:07:22.890Z,30.37
2018-02-05T02:09:51.263Z,31.27
2018-02-05T02:12:20.015Z,34.53
2018-02-05T02:14:48.379Z,33.07
2018-02-05T02:17:16.758Z,33.37
2018-02-05T02:19:45.147Z,33.70
2018-02-05T02:22:13.510Z,31.37
2018-02-05T02:24:41.892Z,31.20
2018-02-05T02:27:10.241Z,30.27
2018-02-05T02:29:38.651Z,31.10
2018-02-05T02:32:07.035Z,33.90
2018-02-05T02:34:35.513Z,30.37
2018-02-05T02:37:03.878Z,31.30
2018-02-05T02:39:32.236Z,30.33
2018-02-05T02:41:59.883Z,31.20
2018-02-05T02:44:28.728Z,32.53
2018-02-05T02:46:57.195Z,27.63
2018-02-05T02:49:25.585Z,32.27
2018-02-05T02:51:53.982Z,31.47
2018-02-05T02:54:22.351Z,29.70
2018-02-05T02:56:50.696Z,27.63
2018-02-05T02:59:19.508Z,30.07
2018-02-05T03:01:47.863Z,28.80
2018-02-05T03:04:16.211Z,29.93
2018-02-05T03:06:44.969Z,29.43
2018-02-05T03:09:13.322Z,27.87
2018-02-05T03:11:41.699Z,29.53
2018-02-05T03:14:10.053Z,26.73
2018-02-05T03:16:38.463Z,27.20
2018-02-05T03:19:06.838Z,26.27
2018-02-05T03:21:35.187Z,25.97
2018-02-05T03:24:03.571Z,26.87
2018-02-05T03:26:31.915Z,24.23
2018-02-05T03:29:00.662Z,24.10
2018-02-05T03:31:29.031Z,27.17
2018-02-05T03:33:57.385Z,25.67
2018-02-05T03:36:26.871Z,25.03
2018-02-05T03:38:55.623Z,25.00
2018-02-05T03:41:23.976Z,24.90
2018-02-05T03:43:52.376Z,23.47
2018-02-05T03:46:20.732Z,23.30
2018-02-05T03:48:49.769Z,25.57
2018-02-05T03:51:18.230Z,24.50
2018-02-05T03:53:46.584Z,23.23
2018-02-05T03:56:14.979Z,24.37
2018-02-05T03:58:43.358Z,23.77
2018-02-05T04:01:11.852Z,21.17
2018-02-05T04:03:40.207Z,20.87
2018-02-05T04:06:08.595Z,23.27
2018-02-05T04:08:36.980Z,20.50
2018-02-05T04:11:05.472Z,20.70
2018-02-05T04:13:33.863Z,21.00
2018-02-05T04:16:02.336Z,20.97
2018-02-05T04:18:30.692Z,19.13
2018-02-05T04:20:59.048Z,19.80
2018-02-05T04:23:27.452Z,21.57
2018-02-05T04:25:55.911Z,20.43
2018-02-05T04:28:24.320Z,21.50
2018-02-05T04:30:52.667Z,20.77
2018-02-05T04:33:21.067Z,20.07
2018-02-05T04:35:49.560Z,20.80
2018-02-05T04:38:17.927Z,20.30
2018-02-05T04:40:46.317Z,20.07
2018-02-05T04:43:14.688Z,20.87
2018-02-05T04:45:43.044Z,19.37
2018-02-05T04:48:11.391Z,23.03
2018-02-05T04:50:40.155Z,18.47
2018-02-05T04:53:08.591Z,20.63
2018-02-05T04:55:36.983Z,19.77
2018-02-05T04:58:05.348Z,19.63
2018-02-05T05:00:33.832Z,21.03
2018-02-05T05:03:02.181Z,17.67
2018-02-05T05:05:31.020Z,19.60
2018-02-05T05:07:59.378Z,20.60
2018-02-05T05:10:27.740Z,19.20
2018-02-05T05:12:56.104Z,19.20
2018-02-05T05:15:24.953Z,20.90
2018-02-05T05:17:53.314Z,21.30
2018-02-05T05:20:21.694Z,21.03
2018-02-05T05:22:50.074Z,24.00
2018-02-05T05:25:18.432Z,21.27
2018-02-05T05:27:46.782Z,20.63
2018-02-05T05:30:15.537Z,24.17
2018-02-05T05:32:43.883Z,19.90
2018-02-05T05:35:12.240Z,22.47
2018-02-05T05:37:40.993Z,20.10
2018-02-05T05:40:09.358Z,20.17
2018-02-05T05:42:37.814Z,19.30
2018-02-05T05:45:06.159Z,19.77
2018-02-05T05:47:34.996Z,19.63
2018-02-05T05:50:03.347Z,20.03
2018-02-05T05:52:31.731Z,17.60
2018-02-05T05:55:00.089Z,20.10
2018-02-05T05:57:28.837Z,17.77
2018-02-05T05:59:57.220Z,18.10
2018-02-05T06:02:25.679Z,19.20
2018-02-05T06:04:54.029Z,16.87
2018-02-05T06:07:22.387Z,17.00
2018-02-05T06:09:51.135Z,16.30
2018-02-05T06:12:19.501Z,15.80
2018-02-05T06:14:47.846Z,17.30
2018-02-05T06:17:16.196Z,16.57
2018-02-05T06:19:45.050Z,16.47
2018-02-05T06:22:13.403Z,16.43
2018-02-05T06:24:41.751Z,16.33
2018-02-05T06:27:10.494Z,16.77
2018-02-05T06:29:39.123Z,15.90
2018-02-05T06:32:07.978Z,17.77
2018-02-05T06:34:36.335Z,15.37
2018-02-05T06:37:04.711Z,17.03
2018-02-05T06:39:33.079Z,18.47
2018-02-05T06:42:01.432Z,15.67
2018-02-05T06:44:30.188Z,16.43
2018-02-05T06:46:58.534Z,16.13
2018-02-05T06:49:26.899Z,13.13
2018-02-05T06:52:13.103Z,14.33
2018-02-05T06:54:59.303Z,15.13
2018-02-05T06:57:27.647Z,16.13
2018-02-05T06:59:56.407Z,14.30
2018-02-05T07:02:24.751Z,12.73
2018-02-05T07:04:53.090Z,14.93
2018-02-05T07:07:21.835Z,16.90
2018-02-05T07:09:50.180Z,12.30
2018-02-05T07:12:18.559Z,17.03
2018-02-05T07:14:46.964Z,11.80
2018-02-05T07:17:15.384Z,13.53
2018-02-05T07:19:44.235Z,12.13
2018-02-05T07:22:12.589Z,17.23
2018-02-05T07:24:41.388Z,15.50
2018-02-05T07:27:09.759Z,11.97
2018-02-05T07:29:38.147Z,11.10
2018-02-05T07:32:07.412Z,13.37
2018-02-05T07:34:35.813Z,10.90
2018-02-05T07:37:04.203Z,12.07
2018-02-05T07:39:32.615Z,12.03
2018-02-05T07:42:01.010Z,12.30
2018-02-05T07:44:29.347Z,12.57
2018-02-05T07:46:57.711Z,10.30
2018-02-05T07:49:26.052Z,10.40
2018-02-05T07:51:54.792Z,10.13
2018-02-05T07:54:23.179Z,12.90
2018-02-05T07:56:51.524Z,11.20
2018-02-05T07:59:19.927Z,10.17
2018-02-05T08:01:48.280Z,9.63
2018-02-05T08:04:16.640Z,9.33
2018-02-05T08:06:45.488Z,10.40
2018-02-05T08:09:13.836Z,8.60
2018-02-05T08:11:42.208Z,9.97
2018-02-05T08:14:10.591Z,12.07
2018-02-05T08:16:38.943Z,10.03
2018-02-05T08:19:07.699Z,9.47
2018-02-05T08:21:36.055Z,8.10
2018-02-05T08:24:04.419Z,8.20
2018-02-05T08:26:32.792Z,8.30
2018-02-05T08:29:01.160Z,8.13
2018-02-05T08:31:29.521Z,7.27
2018-02-05T08:33:58.407Z,7.33
2018-02-05T08:36:26.943Z,6.53
2018-02-05T08:38:55.344Z,8.20
2018-02-05T08:41:23.697Z,7.00
2018-02-05T08:43:52.042Z,7.40
2018-02-05T08:46:20.461Z,7.00
2018-02-05T08:48:48.803Z,7.20
2018-02-05T08:51:17.164Z,6.47
2018-02-05T08:53:45.908Z,8.00
2018-02-05T08:56:14.252Z,6.87
2018-02-05T08:58:42.609Z,6.53
2018-02-05T09:01:11.480Z,8.83
2018-02-05T09:03:40.331Z,6.73
2018-02-05T09:06:08.711Z,6.20
2018-02-05T09:08:37.056Z,6.27
2018-02-05T09:11:05.892Z,6.90
2018-02-05T09:13:34.231Z,5.47
2018-02-05T09:16:02.793Z,6.50
2018-02-05T09:18:31.528Z,7.23
2018-02-05T09:20:59.880Z,6.20
2018-02-05T09:23:28.224Z,6.73
2018-02-05T09:25:56.669Z,6.27
2018-02-05T09:28:25.010Z,6.00
2018-02-05T09:30:53.747Z,6.73
2018-02-05T09:33:22.107Z,6.77
2018-02-05T09:35:50.459Z,5.97
2018-02-05T09:38:18.872Z,6.43
2018-02-05T09:40:47.224Z,5.73
2018-02-05T09:43:15.632Z,5.97
2018-02-05T09:45:44.007Z,5.30
2018-02-05T09:48:12.368Z,6.47
2018-02-05T09:50:40.773Z,5.87
2018-02-05T09:53:09.154Z,6.60
2018-02-05T09:55:37.632Z,5.03
2018-02-05T09:58:05.990Z,4.50
2018-02-05T10:00:34.340Z,4.77
2018-02-05T10:03:03.087Z,5.03
2018-02-05T10:05:31.456Z,6.60
2018-02-05T10:07:59.838Z,4.90
2018-02-05T10:10:28.196Z,5.23
2018-02-05T10:12:56.567Z,5.30
2018-02-05T10:15:24.964Z,5.00
2018-02-05T10:17:53.355Z,5.47
2018-02-05T10:20:21.704Z,4.33
2018-02-05T10:22:50.076Z,4.60
2018-02-05T10:25:18.424Z,5.50
2018-02-05T10:27:47.234Z,3.80
2018-02-05T10:30:15.660Z,4.00
2018-02-05T10:32:44.012Z,4.83
2018-02-05T10:35:12.396Z,4.30
2018-02-05T10:37:40.765Z,4.40
2018-02-05T10:40:09.133Z,4.40
2018-02-05T10:42:37.601Z,3.80
2018-02-05T10:45:05.967Z,2.93
2018-02-05T10:47:34.759Z,2.20
2018-02-05T10:50:03.600Z,2.70
2018-02-05T10:52:32.197Z,4.00
2018-02-05T10:55:00.540Z,5.20
2018-02-05T10:57:28.897Z,6.20
2018-02-05T10:59:57.728Z,7.10
2018-02-05T11:02:26.093Z,3.30
2018-02-05T11:04:54.492Z,3.53
2018-02-05T11:07:22.871Z,2.73
2018-02-05T11:09:51.223Z,3.83
2018-02-05T11:12:19.590Z,4.03
2018-02-05T11:14:48.004Z,3.67
2018-02-05T11:17:16.376Z,4.87
2018-02-05T11:19:44.728Z,1.93
2018-02-05T11:22:13.141Z,3.07
2018-02-05T11:24:41.520Z,3.10
2018-02-05T11:27:09.907Z,3.23
2018-02-05T11:29:38.259Z,2.70
2018-02-05T11:32:06.621Z,3.60
2018-02-05T11:34:34.976Z,3.10
2018-02-05T11:37:03.726Z,3.30
2018-02-05T11:39:32.088Z,3.93
2018-02-05T11:42:00.440Z,4.60
2018-02-05T11:44:28.855Z,3.00
2018-02-05T11:46:57.231Z,3.47
2018-02-05T11:49:25.617Z,2.90
2018-02-05T11:51:54.014Z,3.00
2018-02-05T11:54:22.597Z,2.90
2018-02-05T11:56:51.638Z,3.60
2018-02-05T11:59:20.012Z,3.23
2018-02-05T12:01:48.364Z,3.67
2018-02-05T12:04:16.739Z,3.23
2018-02-05T12:06:45.152Z,2.90
2018-02-05T12:09:13.569Z,3.43
2018-02-05T12:11:41.920Z,3.17
2018-02-05T12:14:10.272Z,3.50
2018-02-05T12:16:39.112Z,3.10
2018-02-05T12:19:07.576Z,3.40
2018-02-05T12:21:38.016Z,2.67
2018-02-05T12:24:06.371Z,3.20
2018-02-05T12:26:34.795Z,2.87
2018-02-05T12:29:03.155Z,3.43
2018-02-05T12:31:32.029Z,2.53
2018-02-05T12:34:00.375Z,2.40
2018-02-05T12:36:29.211Z,3.80
2018-02-05T12:38:57.576Z,3.30
2018-02-05T12:41:25.971Z,2.93
2018-02-05T12:43:54.336Z,2.43
2018-02-05T12:46:22.688Z,2.77
2018-02-05T12:48:51.111Z,2.63
2018-02-05T12:51:19.460Z,2.83
2018-02-05T12:53:47.805Z,3.20
2018-02-05T12:56:16.569Z,3.20
2018-02-05T12:58:44.932Z,2.40
2018-02-05T13:04:40.645Z,2.67
2018-02-05T13:07:09.012Z,3.13
2018-02-05T13:09:37.355Z,3.07
2018-02-05T13:12:05.804Z,3.87
2018-02-05T13:14:34.183Z,5.50
2018-02-05T13:17:02.536Z,4.90
2018-02-05T13:19:30.899Z,3.13
2018-02-05T13:21:59.317Z,3.50
2018-02-05T13:24:27.667Z,3.93
2018-02-05T13:26:56.025Z,3.97
2018-02-05T13:29:24.871Z,3.63
2018-02-05T13:31:53.228Z,3.70
2018-02-05T13:34:21.584Z,2.87
2018-02-05T13:36:49.935Z,3.23
2018-02-05T13:39:18.588Z,2.90
2018-02-05T13:41:46.964Z,7.27
2018-02-05T13:44:15.315Z,4.77
2018-02-05T13:46:43.651Z,2.67
2018-02-05T13:49:12.115Z,5.00
2018-02-05T13:51:40.487Z,3.73
2018-02-05T13:54:08.852Z,5.90
2018-02-05T13:56:37.236Z,2.63
2018-02-05T13:59:05.602Z,2.30
2018-02-05T14:01:33.944Z,2.97
2018-02-05T14:04:02.712Z,5.17
2018-02-05T14:06:31.068Z,2.70
2018-02-05T14:08:59.421Z,3.40
2018-02-05T14:11:27.825Z,3.30
2018-02-05T14:13:56.164Z,3.60
2018-02-05T14:16:24.522Z,3.57
2018-02-05T14:18:58.832Z,3.00
2018-02-05T14:21:27.580Z,3.03
2018-02-05T14:23:55.919Z,3.90
2018-02-05T14:26:24.280Z,3.20
2018-02-05T14:28:53.065Z,2.97
2018-02-05T14:31:21.812Z,2.93
2018-02-05T14:33:50.166Z,3.10
2018-02-05T14:36:18.567Z,3.90
2018-02-05T14:38:46.940Z,2.30
2018-02-05T14:41:15.419Z,3.90
2018-02-05T14:43:43.777Z,3.53
2018-02-05T14:46:12.182Z,3.20
2018-02-05T14:48:40.515Z,3.23
2018-02-05T14:51:09.354Z,2.67
2018-02-05T14:53:37.736Z,2.73
2018-02-05T14:56:06.116Z,3.90
2018-02-05T14:58:34.599Z,3.60
2018-02-05T15:01:02.964Z,3.00
2018-02-05T15:03:31.354Z,3.13
2018-02-05T15:05:59.732Z,3.27
2018-02-05T15:08:28.076Z,2.70
2018-02-05T15:10:56.434Z,3.30
2018-02-05T15:13:25.262Z,3.30
2018-02-05T15:15:53.657Z,3.50
2018-02-05T15:18:22.024Z,3.27
2018-02-05T15:20:50.398Z,3.67
2018-02-05T15:23:18.758Z,2.87
2018-02-05T15:25:47.102Z,3.20
2018-02-05T15:28:15.560Z,3.50
2018-02-05T15:30:43.924Z,3.87
2018-02-05T15:33:12.288Z,3.53
2018-02-05T15:35:40.692Z,3.83
2018-02-05T15:38:09.062Z,4.20
2018-02-05T15:40:37.407Z,4.53
2018-02-05T15:43:05.748Z,5.37
2018-02-05T15:45:34.133Z,9.13
2018-02-05T15:48:02.592Z,6.20
2018-02-05T15:50:30.998Z,76.20
2018-02-05T15:52:59.744Z,31.43
2018-02-05T15:55:28.140Z,13.80
2018-02-05T15:57:56.508Z,15.10
2018-02-05T16:00:24.880Z,4.50
2018-02-05T16:02:53.266Z,4.90
2018-02-05T16:05:21.608Z,9.70
2018-02-05T16:07:50.034Z,4.80
2018-02-05T16:10:18.757Z,3.90
2018-02-05T16:12:47.515Z,4.30
2018-02-05T16:15:15.875Z,5.20
2018-02-05T16:17:44.251Z,4.73
2018-02-05T16:20:12.663Z,3.40
2018-02-05T16:22:41.111Z,4.53
2018-02-05T16:25:09.468Z,3.60
2018-02-05T16:27:37.807Z,3.73
2018-02-05T16:30:06.656Z,3.30
2018-02-05T16:32:35.040Z,2.70
2018-02-05T16:35:03.416Z,3.57
2018-02-05T16:37:31.776Z,3.67
2018-02-05T16:40:00.189Z,4.13
2018-02-05T16:42:28.656Z,4.50
2018-02-05T16:44:57.036Z,3.60
2018-02-05T16:47:25.413Z,3.77
2018-02-05T16:49:53.780Z,3.03
2018-02-05T16:52:22.351Z,3.23
2018-02-05T16:54:50.772Z,3.27
2018-02-05T16:57:19.138Z,3.67
2018-02-05T16:59:47.484Z,4.40
2018-02-05T17:02:15.944Z,4.80
2018-02-05T17:04:44.717Z,4.23
2018-02-05T17:07:13.156Z,6.17
2018-02-05T17:09:41.512Z,5.37
2018-02-05T17:12:09.924Z,5.67
2018-02-05T17:14:38.297Z,5.33
2018-02-05T17:17:06.649Z,6.00
2018-02-05T17:19:35.064Z,6.90
2018-02-05T17:22:03.430Z,7.87
2018-02-05T17:24:31.787Z,6.93
2018-02-05T17:27:00.298Z,5.33
2018-02-05T17:29:28.712Z,7.50
2018-02-05T17:31:57.517Z,9.40
2018-02-05T17:34:26.252Z,9.70
2018-02-05T17:36:54.616Z,7.57
2018-02-05T17:39:22.960Z,6.13
2018-02-05T17:41:51.398Z,6.97
2018-02-05T17:44:19.866Z,8.07
2018-02-05T17:46:48.219Z,7.60
2018-02-05T17:49:16.699Z,5.60
2018-02-05T17:51:45.111Z,6.97
2018-02-05T17:54:13.474Z,5.90
2018-02-05T17:56:41.856Z,6.67
2018-02-05T17:59:10.204Z,8.03
2018-02-05T18:01:38.552Z,7.23
2018-02-05T18:04:07.342Z,5.67
2018-02-05T18:06:36.199Z,6.87
2018-02-05T18:09:04.591Z,8.80
2018-02-05T18:11:33.080Z,8.20
2018-02-05T18:14:01.435Z,7.27
2018-02-05T18:16:29.779Z,5.03
2018-02-05T18:18:58.136Z,7.70
2018-02-05T18:21:27.013Z,7.37
2018-02-05T18:23:55.471Z,7.47
2018-02-05T18:26:23.834Z,8.27
2018-02-05T18:28:52.207Z,7.50
2018-02-05T18:31:20.602Z,8.80
2018-02-05T18:33:48.979Z,9.47
2018-02-05T18:36:17.342Z,8.40
2018-02-05T18:38:45.690Z,9.03
2018-02-05T18:41:14.627Z,8.13
2018-02-05T18:43:43.012Z,9.70
2018-02-05T18:46:11.356Z,6.80
2018-02-05T18:48:39.763Z,6.87
2018-02-05T18:51:08.159Z,7.03
2018-02-05T18:53:36.539Z,7.67
2018-02-05T18:56:04.915Z,7.00
2018-02-05T18:58:33.295Z,7.77
2018-02-05T19:01:01.648Z,8.23
2018-02-05T19:03:30.009Z,6.87
2018-02-05T19:05:58.441Z,8.17
2018-02-05T19:08:26.996Z,7.70
2018-02-05T19:10:55.353Z,10.00
2018-02-05T19:13:23.835Z,6.93
2018-02-05T19:15:52.248Z,7.90
2018-02-05T19:18:20.618Z,6.83
2018-02-05T19:20:48.973Z,7.77
2018-02-05T19:23:17.317Z,8.77
2018-02-05T19:25:46.111Z,8.63
2018-02-05T19:28:14.860Z,8.23
2018-02-05T19:30:43.247Z,8.60
2018-02-05T19:33:11.605Z,9.30
2018-02-05T19:35:39.966Z,8.20
2018-02-05T19:38:08.362Z,9.00
2018-02-05T19:40:36.885Z,8.27
2018-02-05T19:43:05.635Z,8.63
2018-02-05T19:45:33.994Z,9.60
2018-02-05T19:48:02.359Z,9.70
2018-02-05T19:50:30.711Z,9.10
2018-02-05T19:52:59.580Z,9.70
2018-02-05T19:55:27.937Z,10.87
2018-02-05T19:57:56.318Z,8.37
2018-02-05T20:00:24.684Z,7.50
2018-02-05T20:02:53.087Z,9.23
2018-02-05T20:05:21.495Z,8.23
2018-02-05T20:07:50.400Z,8.00
2018-02-05T20:10:18.752Z,7.73
2018-02-05T20:12:47.113Z,8.60
2018-02-05T20:15:15.461Z,9.53
2018-02-05T20:17:43.856Z,8.60
2018-02-05T20:20:12.205Z,9.53
2018-02-05T20:22:41.124Z,8.43
2018-02-05T20:25:09.505Z,8.00
2018-02-05T20:27:37.849Z,8.17
2018-02-05T20:30:06.205Z,7.20
2018-02-05T20:32:34.966Z,7.00
2018-02-05T20:35:03.335Z,8.27
2018-02-05T20:37:31.703Z,8.77
2018-02-05T20:40:00.119Z,8.40
2018-02-05T20:42:28.901Z,8.10
2018-02-05T20:44:57.259Z,8.87
2018-02-05T20:47:25.711Z,9.13
2018-02-05T20:49:54.052Z,8.97
2018-02-05T20:52:22.813Z,10.30
2018-02-05T20:54:51.166Z,10.10
2018-02-05T20:57:19.557Z,7.97
2018-02-05T20:59:53.645Z,9.27
2018-02-05T21:02:22.012Z,7.83
2018-02-05T21:04:50.364Z,9.07
2018-02-05T21:07:19.133Z,7.73
2018-02-05T21:09:47.606Z,8.63
2018-02-05T21:12:15.973Z,13.27
2018-02-05T21:14:44.347Z,12.47
2018-02-05T21:17:12.705Z,9.30
2018-02-05T21:19:41.116Z,8.30
2018-02-05T21:22:09.462Z,7.77
2018-02-05T21:24:37.869Z,8.07
2018-02-05T21:27:06.216Z,8.60
2018-02-05T21:29:34.584Z,7.73
2018-02-05T21:32:02.985Z,9.30
2018-02-05T21:34:31.347Z,7.80
2018-02-05T21:36:59.703Z,9.57
2018-02-05T21:39:28.447Z,9.43
2018-02-05T21:41:56.837Z,9.93
2018-02-05T21:44:25.188Z,11.23
2018-02-05T21:46:53.626Z,10.60
2018-02-05T21:49:22.388Z,10.87
2018-02-05T21:51:50.760Z,9.70
2018-02-05T21:54:19.124Z,11.73
2018-02-05T21:56:47.498Z,11.40
2018-02-05T21:59:15.892Z,12.07
2018-02-05T22:01:44.251Z,10.77
2018-02-05T22:04:12.616Z,10.70
2018-02-05T22:06:40.994Z,10.90
2018-02-05T22:09:09.385Z,11.03
2018-02-05T22:11:37.888Z,10.70
2018-02-05T22:14:06.264Z,11.87
2018-02-05T22:16:34.617Z,10.00
2018-02-05T22:19:02.996Z,11.20
2018-02-05T22:21:31.356Z,10.93
2018-02-05T22:23:59.760Z,10.83
2018-02-05T22:26:28.156Z,9.87
2018-02-05T22:28:56.547Z,14.37
2018-02-05T22:31:24.916Z,14.40
2018-02-05T22:33:53.278Z,10.30
2018-02-05T22:36:22.492Z,10.20
2018-02-05T22:38:50.880Z,9.30
2018-02-05T22:41:19.253Z,10.00
2018-02-05T22:43:47.635Z,10.47
2018-02-05T22:46:15.996Z,9.60
2018-02-05T22:48:44.373Z,10.00
2018-02-05T22:51:12.750Z,10.00
2018-02-05T22:53:41.113Z,9.77
2018-02-05T22:56:09.471Z,10.07
2018-02-05T22:58:38.232Z,11.07
2018-02-05T23:01:06.584Z,11.20
2018-02-05T23:03:34.964Z,10.80
2018-02-05T23:06:03.339Z,8.87
2018-02-05T23:08:31.729Z,8.80
2018-02-05T23:11:00.110Z,8.80
2018-02-05T23:13:28.479Z,9.90
2018-02-05T23:15:56.864Z,8.67
2018-02-05T23:18:25.239Z,9.30
2018-02-05T23:20:53.644Z,8.13
2018-02-05T23:23:21.999Z,8.80
2018-02-05T23:25:50.483Z,9.80
2018-02-05T23:28:18.846Z,9.17
2018-02-05T23:30:47.192Z,9.63
2018-02-05T23:33:15.624Z,9.90
2018-02-05T23:35:43.996Z,10.20
2018-02-05T23:38:12.357Z,10.37
2018-02-05T23:40:40.775Z,8.03
2018-02-05T23:43:09.152Z,9.20
2018-02-05T23:45:37.515Z,8.87
2018-02-05T23:48:05.891Z,9.30
2018-02-05T23:50:34.249Z,9.50
2018-02-05T23:53:02.677Z,10.77
2018-02-05T23:55:31.132Z,10.93
2018-02-05T23:57:59.481Z,10.30
